createdAt,value
2023-02-18T00:01:45.427Z,9.90
2023-02-18T00:04:13.843Z,12.40
2023-02-18T00:06:42.179Z,17.63
2023-02-18T00:09:11.318Z,13.47
2023-02-18T00:11:40.526Z,11.30
2023-02-18T00:14:15.776Z,9.40
2023-02-18T00:16:45.169Z,13.90
2023-02-18T00:19:18.105Z,9.87
2023-02-18T00:21:46.995Z,10.47
2023-02-18T00:24:17.294Z,13.17
2023-02-18T00:26:46.336Z,9.97
2023-02-18T00:29:16.056Z,15.30
2023-02-18T00:31:44.559Z,15.07
2023-02-18T00:34:14.132Z,11.63
2023-02-18T00:36:43.119Z,10.40
2023-02-18T00:39:12.795Z,16.23
2023-02-18T00:41:41.792Z,13.50
2023-02-18T00:44:10.378Z,10.37
2023-02-18T00:46:40.558Z,13.20
2023-02-18T00:49:09.662Z,11.77
2023-02-18T00:51:38.381Z,15.13
2023-02-18T00:54:07.003Z,10.53
2023-02-18T00:56:35.557Z,9.93
2023-02-18T00:59:03.996Z,9.63
2023-02-18T01:01:32.481Z,12.83
2023-02-18T01:04:02.413Z,15.23
2023-02-18T01:06:30.764Z,11.63
2023-02-18T01:08:59.077Z,16.50
2023-02-18T01:11:27.501Z,12.87
2023-02-18T01:13:56.142Z,11.83
2023-02-18T01:16:25.251Z,14.23
2023-02-18T01:18:53.967Z,10.20
2023-02-18T01:21:23.645Z,11.57
2023-02-18T01:23:51.946Z,11.40
2023-02-18T01:26:20.375Z,8.67
2023-02-18T01:28:48.743Z,15.33
2023-02-18T01:31:19.015Z,10.93
2023-02-18T01:33:47.544Z,9.40
2023-02-18T01:36:15.906Z,11.70
2023-02-18T01:38:45.529Z,9.73
2023-02-18T01:41:13.954Z,11.93
2023-02-18T01:43:42.224Z,11.03
2023-02-18T01:46:20.612Z,11.67
2023-02-18T01:48:54.136Z,10.77
2023-02-18T01:51:29.629Z,13.63
2023-02-18T01:54:04.923Z,11.73
2023-02-18T01:56:39.477Z,10.50
2023-02-18T01:59:11.811Z,12.07
2023-02-18T02:01:44.150Z,11.73
2023-02-18T02:04:12.814Z,15.17
2023-02-18T02:06:41.163Z,13.50
2023-02-18T02:09:14.955Z,12.83
2023-02-18T02:12:16.160Z,12.53
2023-02-18T02:15:08.022Z,16.20
2023-02-18T02:17:49.590Z,10.70
2023-02-18T02:20:54.881Z,14.13
2023-02-18T02:24:11.586Z,13.03
2023-02-18T02:27:13.227Z,7.77
2023-02-18T02:30:43.647Z,17.27
2023-02-18T02:33:52.640Z,14.53
2023-02-18T02:36:28.565Z,15.20
2023-02-18T02:39:04.724Z,10.70
2023-02-18T02:41:45.825Z,17.40
2023-02-18T02:44:22.504Z,12.37
2023-02-18T02:46:57.010Z,14.70
2023-02-18T02:49:37.897Z,11.70
2023-02-18T02:52:14.296Z,10.40
2023-02-18T02:54:42.752Z,11.93
2023-02-18T02:57:50.890Z,15.33
2023-02-18T03:00:25.178Z,15.17
2023-02-18T03:03:09.519Z,15.77
2023-02-18T03:05:53.890Z,11.53
2023-02-18T03:08:36.400Z,13.63
2023-02-18T03:11:08.513Z,18.90
2023-02-18T03:13:58.760Z,10.90
2023-02-18T03:16:35.793Z,12.13
2023-02-18T03:19:12.979Z,15.33
2023-02-18T03:21:47.395Z,16.00
2023-02-18T03:24:21.597Z,16.97
2023-02-18T03:26:53.823Z,14.17
2023-02-18T03:29:24.644Z,21.37
2023-02-18T03:31:59.225Z,21.90
2023-02-18T03:34:31.699Z,16.97
2023-02-18T03:37:01.950Z,16.03
2023-02-18T03:39:32.429Z,18.47
2023-02-18T03:42:01.279Z,15.90
2023-02-18T03:44:33.099Z,21.37
2023-02-18T03:47:01.524Z,18.40
2023-02-18T03:49:29.807Z,21.43
2023-02-18T03:51:58.133Z,21.30
2023-02-18T03:54:26.457Z,26.20
2023-02-18T03:56:54.799Z,21.63
2023-02-18T03:59:23.188Z,22.27
2023-02-18T04:01:52.840Z,21.50
2023-02-18T04:04:21.245Z,22.73
2023-02-18T04:06:49.523Z,29.37
2023-02-18T04:09:19.015Z,25.40
2023-02-18T04:11:47.375Z,22.93
2023-02-18T04:14:16.227Z,22.13
2023-02-18T04:16:44.608Z,24.50
2023-02-18T04:19:14.272Z,22.80
2023-02-18T04:21:42.645Z,21.93
2023-02-18T04:24:10.889Z,24.17
2023-02-18T04:26:39.211Z,22.30
2023-02-18T04:29:07.848Z,29.10
2023-02-18T04:31:36.276Z,25.00
2023-02-18T04:34:05.073Z,26.23
2023-02-18T04:36:34.823Z,29.60
2023-02-18T04:39:03.393Z,25.97
2023-02-18T04:41:31.907Z,24.63
2023-02-18T04:44:00.695Z,27.63
2023-02-18T04:46:29.597Z,27.53
2023-02-18T04:48:57.836Z,24.47
2023-02-18T04:51:26.209Z,30.67
2023-02-18T04:53:55.873Z,29.40
2023-02-18T04:56:24.159Z,28.97
2023-02-18T04:58:52.433Z,32.03
2023-02-18T05:01:20.780Z,30.67
2023-02-18T05:03:49.242Z,29.10
2023-02-18T05:06:17.512Z,28.00
2023-02-18T05:08:45.848Z,33.63
2023-02-18T05:11:15.567Z,29.27
2023-02-18T05:13:43.869Z,32.83
2023-02-18T05:16:12.525Z,37.00
2023-02-18T05:18:40.989Z,38.23
2023-02-18T05:21:09.528Z,42.17
2023-02-18T05:23:37.902Z,37.17
2023-02-18T05:26:06.951Z,42.23
2023-02-18T05:28:36.792Z,38.20
2023-02-18T05:31:05.601Z,50.47
2023-02-18T05:33:33.951Z,49.53
2023-02-18T05:36:03.058Z,47.50
2023-02-18T05:38:31.459Z,49.37
2023-02-18T05:40:59.740Z,57.33
2023-02-18T05:43:28.060Z,54.27
2023-02-18T05:45:57.825Z,64.17
2023-02-18T05:48:26.186Z,61.67
2023-02-18T05:50:55.970Z,58.60
2023-02-18T05:53:24.464Z,65.43
2023-02-18T05:55:52.820Z,56.33
2023-02-18T05:58:21.177Z,57.17
2023-02-18T06:00:49.514Z,53.77
2023-02-18T06:03:19.283Z,65.03
2023-02-18T06:05:51.384Z,53.47
2023-02-18T06:08:20.401Z,64.53
2023-02-18T06:10:48.835Z,58.00
2023-02-18T06:13:17.418Z,59.73
2023-02-18T06:15:45.971Z,62.30
2023-02-18T06:18:14.395Z,52.03
2023-02-18T06:20:44.219Z,53.20
2023-02-18T06:23:12.508Z,51.17
2023-02-18T06:25:41.123Z,47.70
2023-02-18T06:28:09.664Z,49.03
2023-02-18T06:30:38.146Z,42.83
2023-02-18T06:33:06.801Z,36.80
2023-02-18T06:35:36.098Z,38.80
2023-02-18T06:38:05.796Z,35.33
2023-02-18T06:40:34.378Z,32.97
2023-02-18T06:43:02.685Z,30.60
2023-02-18T06:45:31.057Z,31.17
2023-02-18T06:47:59.402Z,28.17
2023-02-18T06:50:27.765Z,29.27
2023-02-18T06:52:56.146Z,26.03
2023-02-18T06:55:26.098Z,25.03
2023-02-18T06:57:54.392Z,25.13
2023-02-18T07:00:23.879Z,27.30
2023-02-18T07:02:52.415Z,24.67
2023-02-18T07:05:20.890Z,23.77
2023-02-18T07:07:49.250Z,25.83
2023-02-18T07:10:17.607Z,20.87
2023-02-18T07:12:47.451Z,25.40
2023-02-18T07:15:15.984Z,20.73
2023-02-18T07:17:44.602Z,16.60
2023-02-18T07:20:13.360Z,16.73
2023-02-18T07:22:41.728Z,19.97
2023-02-18T07:25:10.200Z,17.33
2023-02-18T07:27:39.084Z,20.13
2023-02-18T07:30:10.568Z,20.33
2023-02-18T07:32:39.263Z,24.23
2023-02-18T07:35:08.629Z,27.97
2023-02-18T07:37:36.916Z,25.40
2023-02-18T07:40:06.690Z,28.43
2023-02-18T07:42:35.689Z,27.37
2023-02-18T07:45:04.062Z,28.23
2023-02-18T07:47:33.695Z,24.63
2023-02-18T07:50:02.126Z,24.87
2023-02-18T07:52:30.395Z,28.60
2023-02-18T07:54:58.750Z,27.67
2023-02-18T07:57:27.100Z,27.10
2023-02-18T07:59:55.441Z,21.97
2023-02-18T08:02:25.628Z,23.67
2023-02-18T08:04:55.977Z,21.37
2023-02-18T08:07:24.740Z,25.47
2023-02-18T08:09:53.085Z,22.53
2023-02-18T08:12:21.419Z,20.80
2023-02-18T08:14:49.667Z,23.53
2023-02-18T08:17:18.282Z,20.03
2023-02-18T08:19:46.618Z,17.80
2023-02-18T08:22:16.212Z,22.43
2023-02-18T08:24:44.491Z,19.40
2023-02-18T08:27:13.492Z,21.83
2023-02-18T08:29:41.790Z,21.00
2023-02-18T08:32:10.122Z,22.87
2023-02-18T08:34:38.583Z,20.93
2023-02-18T08:37:07.311Z,19.37
2023-02-18T08:39:39.778Z,18.70
2023-02-18T08:42:08.548Z,16.20
2023-02-18T08:44:36.909Z,20.40
2023-02-18T08:47:05.706Z,16.53
2023-02-18T08:49:54.933Z,21.83
2023-02-18T08:52:24.074Z,16.10
2023-02-18T08:54:53.772Z,15.10
2023-02-18T08:57:22.143Z,17.97
2023-02-18T08:59:50.523Z,16.77
2023-02-18T09:02:18.789Z,14.10
2023-02-18T09:04:47.287Z,13.33
2023-02-18T09:07:15.735Z,17.27
2023-02-18T09:09:44.185Z,15.73
2023-02-18T09:12:13.817Z,15.33
2023-02-18T09:14:42.660Z,15.63
2023-02-18T09:17:11.011Z,13.13
2023-02-18T09:19:39.294Z,14.37
2023-02-18T09:22:07.661Z,15.03
2023-02-18T09:24:39.244Z,11.23
2023-02-18T09:27:10.235Z,13.07
2023-02-18T09:29:43.381Z,13.57
2023-02-18T09:32:19.986Z,11.20
2023-02-18T09:34:53.887Z,10.10
2023-02-18T09:37:22.190Z,10.30
2023-02-18T09:39:50.713Z,13.10
2023-02-18T09:42:31.478Z,10.87
2023-02-18T09:45:04.516Z,14.30
2023-02-18T09:47:37.210Z,9.27
2023-02-18T09:50:13.898Z,7.43
2023-02-18T09:52:42.267Z,7.13
2023-02-18T09:55:21.677Z,12.27
2023-02-18T09:57:53.273Z,11.60
2023-02-18T10:00:28.375Z,9.93
2023-02-18T10:02:59.850Z,10.67
2023-02-18T10:05:31.011Z,7.93
2023-02-18T10:08:05.370Z,11.67
2023-02-18T10:10:41.190Z,10.93
2023-02-18T10:13:15.645Z,10.77
2023-02-18T10:15:47.511Z,11.50
2023-02-18T10:21:09.108Z,10.30
2023-02-18T10:23:41.929Z,7.87
2023-02-18T10:26:16.393Z,10.83
2023-02-18T10:28:45.711Z,14.43
2023-02-18T10:31:22.083Z,14.00
2023-02-18T10:34:00.840Z,15.67
2023-02-18T10:36:37.552Z,12.43
2023-02-18T10:39:47.381Z,12.70
2023-02-18T10:42:32.035Z,9.90
2023-02-18T10:45:14.347Z,16.47
2023-02-18T10:47:56.482Z,16.03
2023-02-18T10:50:31.922Z,13.93
2023-02-18T10:53:11.366Z,12.83
2023-02-18T10:55:42.390Z,10.53
2023-02-18T10:58:28.881Z,14.97
2023-02-18T11:00:57.818Z,11.93
2023-02-18T11:03:37.582Z,8.93
2023-02-18T11:06:06.770Z,10.97
2023-02-18T11:08:44.387Z,14.87
2023-02-18T11:11:22.273Z,12.47
2023-02-18T11:13:55.673Z,9.40
2023-02-18T11:16:25.110Z,14.47
2023-02-18T11:18:54.780Z,13.97
2023-02-18T11:21:30.943Z,12.33
2023-02-18T11:24:08.665Z,11.10
2023-02-18T11:26:38.491Z,13.00
2023-02-18T11:29:13.173Z,9.60
2023-02-18T11:31:45.343Z,9.27
2023-02-18T11:34:21.613Z,13.47
2023-02-18T11:36:52.295Z,10.03
2023-02-18T11:39:24.526Z,11.83
2023-02-18T11:41:58.035Z,12.07
2023-02-18T11:44:31.630Z,9.67
2023-02-18T11:47:03.199Z,12.57
2023-02-18T11:49:35.149Z,10.73
2023-02-18T11:52:18.697Z,11.57
2023-02-18T11:55:04.612Z,9.97
2023-02-18T11:57:34.028Z,9.37
2023-02-18T12:00:03.557Z,13.17
2023-02-18T12:02:37.651Z,10.83
2023-02-18T12:05:15.906Z,11.90
2023-02-18T12:07:47.425Z,14.70
2023-02-18T12:10:23.403Z,14.47
2023-02-18T12:13:02.176Z,13.97
2023-02-18T12:15:42.559Z,10.30
2023-02-18T12:18:33.742Z,14.27
2023-02-18T12:21:23.024Z,12.53
2023-02-18T12:24:04.849Z,10.10
2023-02-18T12:26:47.373Z,8.67
2023-02-18T12:29:45.040Z,9.23
2023-02-18T12:32:28.608Z,11.20
2023-02-18T12:35:17.193Z,15.57
2023-02-18T12:38:04.285Z,8.50
2023-02-18T12:40:52.944Z,11.10
2023-02-18T12:43:37.512Z,11.23
2023-02-18T12:46:49.086Z,11.50
2023-02-18T12:49:57.139Z,12.13
2023-02-18T12:52:39.903Z,8.73
2023-02-18T12:55:31.475Z,10.70
2023-02-18T12:58:10.781Z,8.37
2023-02-18T13:01:02.282Z,14.23
2023-02-18T13:04:18.478Z,11.53
2023-02-18T13:07:09.773Z,32.77
2023-02-18T13:10:02.900Z,13.20
2023-02-18T13:12:43.915Z,6.43
2023-02-18T13:15:19.916Z,5.73
2023-02-18T13:17:50.299Z,9.47
2023-02-18T13:20:27.281Z,12.70
2023-02-18T13:22:55.771Z,8.10
2023-02-18T13:25:25.037Z,9.50
2023-02-18T13:28:10.020Z,11.60
2023-02-18T13:30:46.754Z,11.33
2023-02-18T13:33:23.794Z,6.23
2023-02-18T13:36:01.756Z,11.70
2023-02-18T13:38:59.617Z,7.27
2023-02-18T13:41:28.717Z,5.47
2023-02-18T13:43:58.405Z,8.03
2023-02-18T13:46:28.349Z,8.97
2023-02-18T13:49:07.466Z,8.17
2023-02-18T13:51:43.265Z,7.00
2023-02-18T13:54:22.541Z,6.63
2023-02-18T13:56:55.501Z,6.57
2023-02-18T13:59:34.448Z,7.37
2023-02-18T14:02:34.252Z,6.57
2023-02-18T14:05:22.744Z,7.03
2023-02-18T14:07:53.703Z,6.43
2023-02-18T14:10:35.957Z,6.57
2023-02-18T14:13:27.106Z,9.97
2023-02-18T14:16:02.010Z,8.13
2023-02-18T14:18:56.540Z,9.63
2023-02-18T14:21:39.248Z,8.77
2023-02-18T14:24:11.381Z,6.57
2023-02-18T14:26:46.128Z,9.53
2023-02-18T14:29:22.320Z,10.53
2023-02-18T14:31:57.843Z,11.67
2023-02-18T14:35:13.534Z,9.13
2023-02-18T14:38:20.495Z,6.83
2023-02-18T14:41:20.418Z,8.30
2023-02-18T14:44:33.981Z,8.93
2023-02-18T14:47:25.318Z,7.47
2023-02-18T14:49:56.019Z,8.80
2023-02-18T14:52:32.362Z,9.93
2023-02-18T14:55:04.688Z,10.50
2023-02-18T14:57:40.506Z,12.27
2023-02-18T15:00:18.678Z,4.73
2023-02-18T15:02:51.507Z,10.00
2023-02-18T15:05:23.251Z,7.47
2023-02-18T15:08:03.012Z,10.67
2023-02-18T15:10:39.679Z,11.97
2023-02-18T15:13:14.747Z,10.20
2023-02-18T15:15:45.665Z,12.30
2023-02-18T15:18:29.149Z,9.40
2023-02-18T15:20:57.764Z,14.73
2023-02-18T15:23:26.317Z,11.93
2023-02-18T15:25:55.667Z,12.43
2023-02-18T15:28:28.083Z,11.60
2023-02-18T15:30:59.092Z,10.63
2023-02-18T15:33:29.818Z,14.37
2023-02-18T15:36:03.395Z,14.80
2023-02-18T15:38:32.290Z,17.37
2023-02-18T15:41:02.084Z,11.63
2023-02-18T15:43:32.216Z,13.37
2023-02-18T15:46:00.652Z,12.83
2023-02-18T15:48:40.989Z,11.03
2023-02-18T15:51:17.744Z,15.13
2023-02-18T15:53:50.718Z,12.57
2023-02-18T15:56:23.497Z,10.47
2023-02-18T15:58:52.172Z,12.10
2023-02-18T16:01:29.611Z,12.37
2023-02-18T16:04:00.096Z,13.97
2023-02-18T16:06:32.411Z,12.90
2023-02-18T16:09:04.354Z,14.27
2023-02-18T16:11:37.758Z,10.30
2023-02-18T16:14:06.639Z,19.20
2023-02-18T16:16:36.969Z,8.67
2023-02-18T16:19:06.664Z,13.40
2023-02-18T16:21:40.088Z,13.93
2023-02-18T16:24:26.353Z,18.03
2023-02-18T16:26:58.628Z,11.97
2023-02-18T16:29:35.946Z,13.23
2023-02-18T16:32:04.568Z,11.80
2023-02-18T16:34:35.813Z,15.13
2023-02-18T16:37:22.253Z,11.53
2023-02-18T16:39:54.932Z,16.33
2023-02-18T16:42:23.329Z,10.53
2023-02-18T16:44:51.958Z,14.57
2023-02-18T16:47:21.543Z,14.90
2023-02-18T16:49:52.824Z,13.80
2023-02-18T16:52:21.520Z,18.60
2023-02-18T16:54:50.278Z,15.67
2023-02-18T16:57:18.577Z,17.10
2023-02-18T16:59:46.994Z,18.07
2023-02-18T17:02:20.280Z,13.37
2023-02-18T17:04:50.034Z,14.87
2023-02-18T17:07:18.538Z,13.53
2023-02-18T17:09:46.827Z,16.87
2023-02-18T17:12:16.027Z,17.73
2023-02-18T17:14:46.816Z,17.47
2023-02-18T17:17:17.953Z,16.80
2023-02-18T17:19:46.284Z,13.50
2023-02-18T17:22:16.319Z,18.23
2023-02-18T17:24:44.748Z,15.00
2023-02-18T17:27:13.079Z,16.03
2023-02-18T17:29:41.355Z,17.77
2023-02-18T17:32:10.096Z,14.93
2023-02-18T17:34:41.004Z,14.93
2023-02-18T17:37:15.258Z,13.40
2023-02-18T17:39:43.716Z,19.17
2023-02-18T17:42:12.933Z,22.57
2023-02-18T17:44:42.319Z,18.13
2023-02-18T17:47:10.638Z,15.43
2023-02-18T17:49:39.001Z,19.73
2023-02-18T17:52:07.335Z,17.30
2023-02-18T17:54:37.089Z,17.70
2023-02-18T17:57:05.318Z,19.67
2023-02-18T17:59:33.597Z,19.03
2023-02-18T18:02:01.831Z,12.17
2023-02-18T18:04:30.235Z,23.83
2023-02-18T18:06:58.463Z,12.43
2023-02-18T18:09:26.711Z,13.87
2023-02-18T18:11:56.415Z,17.90
2023-02-18T18:14:24.759Z,16.30
2023-02-18T18:16:53.085Z,19.93
2023-02-18T18:19:21.399Z,17.70
2023-02-18T18:21:49.650Z,13.37
2023-02-18T18:24:17.863Z,20.67
2023-02-18T18:26:46.277Z,18.37
2023-02-18T18:29:15.950Z,14.93
2023-02-18T18:31:44.297Z,15.43
2023-02-18T18:34:17.331Z,16.13
2023-02-18T18:36:45.911Z,22.93
2023-02-18T18:39:14.169Z,20.27
2023-02-18T18:41:42.465Z,23.80
2023-02-18T18:44:12.348Z,17.87
2023-02-18T18:46:42.191Z,22.63
2023-02-18T18:49:10.459Z,17.00
2023-02-18T18:51:39.262Z,20.07
2023-02-18T18:54:07.662Z,14.70
2023-02-18T18:56:37.860Z,25.00
2023-02-18T18:59:08.571Z,20.97
2023-02-18T19:01:36.961Z,18.77
2023-02-18T19:04:06.853Z,15.03
2023-02-18T19:06:35.404Z,22.37
2023-02-18T19:09:03.672Z,17.53
2023-02-18T19:11:31.978Z,20.17
2023-02-18T19:14:00.284Z,22.83
2023-02-18T19:16:36.015Z,18.87
2023-02-18T19:19:04.451Z,23.57
2023-02-18T19:21:34.167Z,19.27
2023-02-18T19:24:02.498Z,21.63
2023-02-18T19:26:30.761Z,18.83
2023-02-18T19:28:59.164Z,22.40
2023-02-18T19:31:28.317Z,19.13
2023-02-18T19:33:56.695Z,21.33
2023-02-18T19:36:25.038Z,20.90
2023-02-18T19:38:54.687Z,20.57
2023-02-18T19:41:23.116Z,23.20
2023-02-18T19:43:51.454Z,24.70
2023-02-18T19:46:20.586Z,19.73
2023-02-18T19:48:51.259Z,22.30
2023-02-18T19:51:20.644Z,21.57
2023-02-18T19:53:49.128Z,22.10
2023-02-18T19:56:18.785Z,20.10
2023-02-18T19:58:47.112Z,20.63
2023-02-18T20:01:17.464Z,22.97
2023-02-18T20:03:47.387Z,22.13
2023-02-18T20:06:17.601Z,20.40
2023-02-18T20:08:46.162Z,25.23
2023-02-18T20:11:14.546Z,24.33
2023-02-18T20:13:44.779Z,20.23
2023-02-18T20:16:13.711Z,21.80
2023-02-18T20:18:42.104Z,23.00
2023-02-18T20:21:12.601Z,27.07
2023-02-18T20:23:40.999Z,22.17
2023-02-18T20:26:10.108Z,27.23
2023-02-18T20:28:38.597Z,26.47
2023-02-18T20:31:11.265Z,23.07
2023-02-18T20:33:42.286Z,20.17
2023-02-18T20:36:12.572Z,21.33
2023-02-18T20:38:41.126Z,23.17
2023-02-18T20:41:14.048Z,21.87
2023-02-18T20:43:42.766Z,21.83
2023-02-18T20:46:15.831Z,22.57
2023-02-18T20:48:44.450Z,27.17
2023-02-18T20:51:15.152Z,17.90
2023-02-18T20:53:45.687Z,23.67
2023-02-18T20:56:14.464Z,21.43
2023-02-18T20:58:43.368Z,24.30
2023-02-18T21:01:15.058Z,18.13
2023-02-18T21:03:44.386Z,19.27
2023-02-18T21:06:15.990Z,18.80
2023-02-18T21:08:46.854Z,18.83
2023-02-18T21:11:17.725Z,19.97
2023-02-18T21:13:47.789Z,23.80
2023-02-18T21:16:19.152Z,19.03
2023-02-18T21:18:47.431Z,21.57
2023-02-18T21:21:16.309Z,18.53
2023-02-18T21:23:44.761Z,24.03
2023-02-18T21:26:16.024Z,25.40
2023-02-18T21:28:48.111Z,19.27
2023-02-18T21:31:21.854Z,22.60
2023-02-18T21:33:50.460Z,18.70
2023-02-18T21:36:20.165Z,22.07
2023-02-18T21:38:53.469Z,18.80
2023-02-18T21:41:21.922Z,17.37
2023-02-18T21:43:50.436Z,20.37
2023-02-18T21:46:24.204Z,18.17
2023-02-18T21:49:06.627Z,19.20
2023-02-18T21:51:57.963Z,19.83
2023-02-18T21:54:29.356Z,20.27
2023-02-18T21:57:02.971Z,28.30
2023-02-18T21:59:42.567Z,24.50
2023-02-18T22:02:18.820Z,22.00
2023-02-18T22:04:48.379Z,20.93
2023-02-18T22:07:17.781Z,24.50
2023-02-18T22:09:48.479Z,22.33
2023-02-18T22:12:17.922Z,23.87
2023-02-18T22:14:46.212Z,21.57
2023-02-18T22:17:17.075Z,24.43
2023-02-18T22:19:46.241Z,24.40
2023-02-18T22:22:14.598Z,23.70
2023-02-18T22:24:42.887Z,24.00
2023-02-18T22:27:11.885Z,22.67
2023-02-18T22:29:40.488Z,25.13
2023-02-18T22:32:08.961Z,24.93
2023-02-18T22:34:38.835Z,30.70
2023-02-18T22:37:07.441Z,24.70
2023-02-18T22:39:35.811Z,22.60
2023-02-18T22:42:04.150Z,23.90
2023-02-18T22:44:32.647Z,27.50
2023-02-18T22:47:01.077Z,24.07
2023-02-18T22:49:29.341Z,27.00
2023-02-18T22:51:59.010Z,40.03
2023-02-18T22:54:27.318Z,43.00
2023-02-18T22:56:55.836Z,43.50
2023-02-18T22:59:24.081Z,49.20
2023-02-18T23:01:53.251Z,50.97
2023-02-18T23:04:22.793Z,49.90
2023-02-18T23:06:52.288Z,49.73
2023-02-18T23:09:24.199Z,57.20
2023-02-18T23:11:54.352Z,60.07
2023-02-18T23:14:23.116Z,55.17
2023-02-18T23:17:12.730Z,58.27
2023-02-18T23:19:43.204Z,55.30
2023-02-18T23:22:14.016Z,55.13
2023-02-18T23:24:46.684Z,54.83
2023-02-18T23:27:16.627Z,49.20
2023-02-18T23:29:44.979Z,49.30
2023-02-18T23:32:13.688Z,48.63
2023-02-18T23:34:42.000Z,50.20
2023-02-18T23:37:11.037Z,49.40
2023-02-18T23:39:39.940Z,45.50
2023-02-18T23:42:10.061Z,48.30
2023-02-18T23:44:38.565Z,46.70
2023-02-18T23:47:08.474Z,47.80
2023-02-18T23:49:36.817Z,43.20
2023-02-18T23:52:05.228Z,41.97
2023-02-18T23:54:33.663Z,42.40
2023-02-18T23:57:02.054Z,50.57
2023-02-18T23:59:31.761Z,47.23
